sensor_id;sensor_type;location;lat;lon;timestamp;pressure;altitude;pressure_sealevel;temperature;humidity
78825;BME280;68176;45.554;10.220;2023-05-14T00:02:01;99891.16;;;17.96;58.64
78825;BME280;68176;45.554;10.220;2023-05-14T00:04:30;99887.50;;;17.97;58.68
78825;BME280;68176;45.554;10.220;2023-05-14T00:07:00;99863.22;;;17.86;58.84
78825;BME280;68176;45.554;10.220;2023-05-14T00:09:31;99861.38;;;17.86;58.73
78825;BME280;68176;45.554;10.220;2023-05-14T00:12:01;99856.91;;;17.87;59.07
78825;BME280;68176;45.554;10.220;2023-05-14T00:14:30;99864.78;;;17.95;58.77
78825;BME280;68176;45.554;10.220;2023-05-14T00:17:01;99853.22;;;17.88;58.72
78825;BME280;68176;45.554;10.220;2023-05-14T00:19:30;99844.44;;;17.87;58.74
78825;BME280;68176;45.554;10.220;2023-05-14T00:22:01;99840.53;;;17.83;58.64
78825;BME280;68176;45.554;10.220;2023-05-14T00:24:31;99841.88;;;17.79;58.85
78825;BME280;68176;45.554;10.220;2023-05-14T00:27:01;99863.69;;;17.89;58.80
78825;BME280;68176;45.554;10.220;2023-05-14T00:29:31;99844.09;;;17.90;59.03
78825;BME280;68176;45.554;10.220;2023-05-14T00:32:02;99834.53;;;17.81;58.78
78825;BME280;68176;45.554;10.220;2023-05-14T00:34:31;99848.75;;;17.88;58.68
78825;BME280;68176;45.554;10.220;2023-05-14T00:37:01;99830.25;;;17.80;58.65
78825;BME280;68176;45.554;10.220;2023-05-14T00:39:31;99821.00;;;17.76;58.51
78825;BME280;68176;45.554;10.220;2023-05-14T00:42:04;99830.91;;;17.82;58.72
78825;BME280;68176;45.554;10.220;2023-05-14T00:44:31;99856.72;;;17.88;58.87
78825;BME280;68176;45.554;10.220;2023-05-14T00:47:01;99848.75;;;17.88;58.65
78825;BME280;68176;45.554;10.220;2023-05-14T00:49:31;99827.13;;;17.77;58.59
78825;BME280;68176;45.554;10.220;2023-05-14T00:52:01;99827.63;;;17.80;58.54
78825;BME280;68176;45.554;10.220;2023-05-14T00:54:31;99826.78;;;17.80;58.71
78825;BME280;68176;45.554;10.220;2023-05-14T00:57:01;99814.41;;;17.72;58.71
78825;BME280;68176;45.554;10.220;2023-05-14T00:59:31;99812.78;;;17.71;58.94
78825;BME280;68176;45.554;10.220;2023-05-14T01:02:01;99819.00;;;17.78;58.67
78825;BME280;68176;45.554;10.220;2023-05-14T01:04:31;99827.63;;;17.80;58.60
78825;BME280;68176;45.554;10.220;2023-05-14T01:07:15;99825.59;;;17.82;58.65
78825;BME280;68176;45.554;10.220;2023-05-14T01:09:59;99808.47;;;17.70;58.75
78825;BME280;68176;45.554;10.220;2023-05-14T01:12:38;99790.97;;;17.61;58.90
78825;BME280;68176;45.554;10.220;2023-05-14T01:15:28;99821.47;;;17.80;58.92
78825;BME280;68176;45.554;10.220;2023-05-14T01:18:07;99800.75;;;17.61;58.89
78825;BME280;68176;45.554;10.220;2023-05-14T01:20:33;99797.53;;;17.65;59.06
78825;BME280;68176;45.554;10.220;2023-05-14T01:22:59;99804.50;;;17.66;58.74
78825;BME280;68176;45.554;10.220;2023-05-14T01:25:28;99795.56;;;17.67;58.87
78825;BME280;68176;45.554;10.220;2023-05-14T01:28:17;99811.22;;;17.77;58.63
78825;BME280;68176;45.554;10.220;2023-05-14T01:31:17;99817.06;;;17.72;58.76
78825;BME280;68176;45.554;10.220;2023-05-14T01:33:46;99800.03;;;17.67;59.04
78825;BME280;68176;45.554;10.220;2023-05-14T01:36:12;99799.56;;;17.63;58.97
78825;BME280;68176;45.554;10.220;2023-05-14T01:38:38;99810.44;;;17.68;58.92
78825;BME280;68176;45.554;10.220;2023-05-14T01:41:08;99788.47;;;17.59;58.61
78825;BME280;68176;45.554;10.220;2023-05-14T01:43:38;99787.50;;;17.61;58.96
78825;BME280;68176;45.554;10.220;2023-05-14T01:46:08;99784.63;;;17.62;58.71
78825;BME280;68176;45.554;10.220;2023-05-14T01:48:38;99767.84;;;17.47;58.89
78825;BME280;68176;45.554;10.220;2023-05-14T01:51:08;99800.31;;;17.72;58.86
78825;BME280;68176;45.554;10.220;2023-05-14T01:53:38;99774.84;;;17.63;58.68
78825;BME280;68176;45.554;10.220;2023-05-14T01:56:08;99785.59;;;17.69;58.88
78825;BME280;68176;45.554;10.220;2023-05-14T01:58:38;99773.91;;;17.55;58.93
78825;BME280;68176;45.554;10.220;2023-05-14T02:01:08;99773.41;;;17.60;58.87
78825;BME280;68176;45.554;10.220;2023-05-14T02:03:38;99777.97;;;17.66;58.94
78825;BME280;68176;45.554;10.220;2023-05-14T02:06:08;99781.47;;;17.67;58.91
78825;BME280;68176;45.554;10.220;2023-05-14T02:08:38;99750.09;;;17.47;59.14
78825;BME280;68176;45.554;10.220;2023-05-14T02:11:08;99744.81;;;17.47;58.84
78825;BME280;68176;45.554;10.220;2023-05-14T02:13:38;99738.03;;;17.45;58.87
78825;BME280;68176;45.554;10.220;2023-05-14T02:16:08;99771.22;;;17.64;58.84
78825;BME280;68176;45.554;10.220;2023-05-14T02:18:40;99748.28;;;17.48;58.83
78825;BME280;68176;45.554;10.220;2023-05-14T02:21:08;99766.06;;;17.62;58.77
78825;BME280;68176;45.554;10.220;2023-05-14T02:23:38;99758.78;;;17.64;58.73
78825;BME280;68176;45.554;10.220;2023-05-14T02:26:11;99751.81;;;17.63;58.74
78825;BME280;68176;45.554;10.220;2023-05-14T02:28:38;99755.09;;;17.65;58.93
78825;BME280;68176;45.554;10.220;2023-05-14T02:31:08;99724.22;;;17.49;58.76
78825;BME280;68176;45.554;10.220;2023-05-14T02:33:38;99739.91;;;17.59;58.76
78825;BME280;68176;45.554;10.220;2023-05-14T02:36:08;99732.31;;;17.56;58.77
78825;BME280;68176;45.554;10.220;2023-05-14T02:38:38;99703.25;;;17.40;58.83
78825;BME280;68176;45.554;10.220;2023-05-14T02:41:08;99740.59;;;17.61;58.94
78825;BME280;68176;45.554;10.220;2023-05-14T02:43:38;99750.16;;;17.62;58.76
78825;BME280;68176;45.554;10.220;2023-05-14T02:46:08;99730.81;;;17.53;58.75
78825;BME280;68176;45.554;10.220;2023-05-14T02:48:38;99743.22;;;17.61;58.96
78825;BME280;68176;45.554;10.220;2023-05-14T02:51:09;99724.69;;;17.53;58.99
78825;BME280;68176;45.554;10.220;2023-05-14T02:53:38;99711.16;;;17.48;58.76
78825;BME280;68176;45.554;10.220;2023-05-14T02:56:08;99714.44;;;17.50;58.89
78825;BME280;68176;45.554;10.220;2023-05-14T02:58:38;99708.31;;;17.49;58.94
78825;BME280;68176;45.554;10.220;2023-05-14T03:01:08;99691.50;;;17.42;58.87
78825;BME280;68176;45.554;10.220;2023-05-14T03:03:38;99705.03;;;17.47;58.88
78825;BME280;68176;45.554;10.220;2023-05-14T03:06:08;99675.84;;;17.33;58.78
78825;BME280;68176;45.554;10.220;2023-05-14T03:08:38;99687.34;;;17.40;58.86
78825;BME280;68176;45.554;10.220;2023-05-14T03:11:08;99715.75;;;17.54;59.06
78825;BME280;68176;45.554;10.220;2023-05-14T03:13:38;99701.84;;;17.52;58.91
78825;BME280;68176;45.554;10.220;2023-05-14T03:16:09;99710.44;;;17.54;58.95
78825;BME280;68176;45.554;10.220;2023-05-14T03:18:38;99694.94;;;17.43;59.03
78825;BME280;68176;45.554;10.220;2023-05-14T03:21:08;99685.72;;;17.39;58.94
78825;BME280;68176;45.554;10.220;2023-05-14T03:23:38;99700.56;;;17.48;59.00
78825;BME280;68176;45.554;10.220;2023-05-14T03:26:08;99697.16;;;17.39;58.92
78825;BME280;68176;45.554;10.220;2023-05-14T03:28:39;99704.56;;;17.44;59.10
78825;BME280;68176;45.554;10.220;2023-05-14T03:31:08;99709.16;;;17.50;58.93
78825;BME280;68176;45.554;10.220;2023-05-14T03:33:38;99701.63;;;17.39;58.92
78825;BME280;68176;45.554;10.220;2023-05-14T03:36:08;99686.81;;;17.30;58.78
78825;BME280;68176;45.554;10.220;2023-05-14T03:38:38;99709.16;;;17.50;58.95
78825;BME280;68176;45.554;10.220;2023-05-14T03:41:08;99678.13;;;17.36;59.01
78825;BME280;68176;45.554;10.220;2023-05-14T03:43:38;99694.78;;;17.44;58.90
78825;BME280;68176;45.554;10.220;2023-05-14T03:46:08;99669.72;;;17.32;58.85
78825;BME280;68176;45.554;10.220;2023-05-14T03:48:38;99671.19;;;17.35;58.98
78825;BME280;68176;45.554;10.220;2023-05-14T03:51:08;99668.53;;;17.35;58.91
78825;BME280;68176;45.554;10.220;2023-05-14T03:53:38;99668.88;;;17.32;58.91
78825;BME280;68176;45.554;10.220;2023-05-14T03:56:08;99683.34;;;17.44;58.80
78825;BME280;68176;45.554;10.220;2023-05-14T03:58:38;99656.97;;;17.28;58.85
78825;BME280;68176;45.554;10.220;2023-05-14T04:01:09;99678.41;;;17.41;58.79
78825;BME280;68176;45.554;10.220;2023-05-14T04:03:38;99660.94;;;17.32;58.93
78825;BME280;68176;45.554;10.220;2023-05-14T04:06:08;99664.09;;;17.27;58.79
78825;BME280;68176;45.554;10.220;2023-05-14T04:08:38;99673.47;;;17.38;58.80
78825;BME280;68176;45.554;10.220;2023-05-14T04:11:09;99673.75;;;17.43;59.07
78825;BME280;68176;45.554;10.220;2023-05-14T04:13:38;99678.03;;;17.44;58.82
78825;BME280;68176;45.554;10.220;2023-05-14T04:16:09;99661.56;;;17.34;58.96
78825;BME280;68176;45.554;10.220;2023-05-14T04:18:39;99660.09;;;17.31;58.79
78825;BME280;68176;45.554;10.220;2023-05-14T04:21:09;99669.16;;;17.37;58.77
78825;BME280;68176;45.554;10.220;2023-05-14T04:23:39;99655.78;;;17.30;58.82
78825;BME280;68176;45.554;10.220;2023-05-14T04:26:09;99674.75;;;17.42;58.84
78825;BME280;68176;45.554;10.220;2023-05-14T04:28:39;99660.31;;;17.30;58.99
78825;BME280;68176;45.554;10.220;2023-05-14T04:31:09;99661.56;;;17.34;59.04
78825;BME280;68176;45.554;10.220;2023-05-14T04:33:38;99653.34;;;17.29;58.97
78825;BME280;68176;45.554;10.220;2023-05-14T04:36:09;99660.84;;;17.40;58.87
78825;BME280;68176;45.554;10.220;2023-05-14T04:38:39;99657.91;;;17.35;58.79
78825;BME280;68176;45.554;10.220;2023-05-14T04:41:09;99658.13;;;17.33;58.80
78825;BME280;68176;45.554;10.220;2023-05-14T04:43:39;99666.34;;;17.38;59.03
78825;BME280;68176;45.554;10.220;2023-05-14T04:46:09;99639.47;;;17.27;58.90
78825;BME280;68176;45.554;10.220;2023-05-14T04:48:39;99635.88;;;17.20;58.78
78825;BME280;68176;45.554;10.220;2023-05-14T04:51:09;99642.75;;;17.29;58.76
78825;BME280;68176;45.554;10.220;2023-05-14T04:53:39;99656.63;;;17.31;58.81
78825;BME280;68176;45.554;10.220;2023-05-14T04:56:09;99632.22;;;17.21;58.91
78825;BME280;68176;45.554;10.220;2023-05-14T04:58:39;99657.81;;;17.28;59.16
78825;BME280;68176;45.554;10.220;2023-05-14T05:01:09;99623.81;;;17.17;58.79
78825;BME280;68176;45.554;10.220;2023-05-14T05:03:39;99651.31;;;17.31;59.00
78825;BME280;68176;45.554;10.220;2023-05-14T05:06:09;99653.34;;;17.29;59.00
78825;BME280;68176;45.554;10.220;2023-05-14T05:08:39;99668.16;;;17.38;58.83
78825;BME280;68176;45.554;10.220;2023-05-14T05:11:09;99650.50;;;17.30;58.88
78825;BME280;68176;45.554;10.220;2023-05-14T05:13:39;99666.50;;;17.37;58.87
78825;BME280;68176;45.554;10.220;2023-05-14T05:16:09;99660.78;;;17.33;58.89
78825;BME280;68176;45.554;10.220;2023-05-14T05:18:39;99661.94;;;17.31;58.65
78825;BME280;68176;45.554;10.220;2023-05-14T05:21:09;99664.88;;;17.36;58.76
78825;BME280;68176;45.554;10.220;2023-05-14T05:23:39;99656.63;;;17.31;58.66
78825;BME280;68176;45.554;10.220;2023-05-14T05:26:09;99655.34;;;17.27;58.80
78825;BME280;68176;45.554;10.220;2023-05-14T05:28:39;99668.53;;;17.35;58.90
78825;BME280;68176;45.554;10.220;2023-05-14T05:31:09;99663.94;;;17.29;58.68
78825;BME280;68176;45.554;10.220;2023-05-14T05:33:39;99675.84;;;17.33;58.94
78825;BME280;68176;45.554;10.220;2023-05-14T05:36:09;99645.47;;;17.21;59.05
78825;BME280;68176;45.554;10.220;2023-05-14T05:38:39;99658.28;;;17.32;58.81
78825;BME280;68176;45.554;10.220;2023-05-14T05:41:09;99656.63;;;17.31;59.03
78825;BME280;68176;45.554;10.220;2023-05-14T05:43:39;99640.50;;;17.18;58.98
78825;BME280;68176;45.554;10.220;2023-05-14T05:46:09;99652.03;;;17.25;58.92
78825;BME280;68176;45.554;10.220;2023-05-14T05:48:39;99652.88;;;17.25;58.74
78825;BME280;68176;45.554;10.220;2023-05-14T05:51:09;99664.94;;;17.28;58.92
78825;BME280;68176;45.554;10.220;2023-05-14T05:53:42;99665.59;;;17.30;58.77
78825;BME280;68176;45.554;10.220;2023-05-14T05:56:09;99633.56;;;17.17;58.93
78825;BME280;68176;45.554;10.220;2023-05-14T05:58:39;99673.81;;;17.35;58.94
78825;BME280;68176;45.554;10.220;2023-05-14T06:01:09;99657.19;;;17.26;58.92
78825;BME280;68176;45.554;10.220;2023-05-14T06:03:39;99682.59;;;17.35;58.90
78825;BME280;68176;45.554;10.220;2023-05-14T06:06:09;99661.09;;;17.30;59.06
78825;BME280;68176;45.554;10.220;2023-05-14T06:08:39;99675.38;;;17.29;58.95
78825;BME280;68176;45.554;10.220;2023-05-14T06:11:09;99662.00;;;17.23;58.76
78825;BME280;68176;45.554;10.220;2023-05-14T06:13:39;99665.50;;;17.23;59.00
78825;BME280;68176;45.554;10.220;2023-05-14T06:16:09;99645.47;;;17.21;58.75
78825;BME280;68176;45.554;10.220;2023-05-14T06:18:39;99658.72;;;17.21;59.14
78825;BME280;68176;45.554;10.220;2023-05-14T06:21:09;99676.66;;;17.33;58.73
78825;BME280;68176;45.554;10.220;2023-05-14T06:23:39;99667.88;;;17.33;58.58
78825;BME280;68176;45.554;10.220;2023-05-14T06:26:09;99673.47;;;17.38;59.02
78825;BME280;68176;45.554;10.220;2023-05-14T06:28:39;99670.19;;;17.36;58.79
78825;BME280;68176;45.554;10.220;2023-05-14T06:31:09;99669.81;;;17.39;58.83
78825;BME280;68176;45.554;10.220;2023-05-14T06:33:39;99665.25;;;17.33;58.73
78825;BME280;68176;45.554;10.220;2023-05-14T06:36:09;99650.34;;;17.32;58.67
78825;BME280;68176;45.554;10.220;2023-05-14T06:38:39;99626.25;;;17.19;59.02
78825;BME280;68176;45.554;10.220;2023-05-14T06:41:09;99658.28;;;17.32;58.67
78825;BME280;68176;45.554;10.220;2023-05-14T06:43:39;99655.28;;;17.35;58.81
78825;BME280;68176;45.554;10.220;2023-05-14T06:46:09;99671.44;;;17.40;58.81
78825;BME280;68176;45.554;10.220;2023-05-14T06:48:39;99649.69;;;17.30;58.59
78825;BME280;68176;45.554;10.220;2023-05-14T06:51:09;99663.59;;;17.32;58.80
78825;BME280;68176;45.554;10.220;2023-05-14T06:53:40;99637.69;;;17.19;58.64
78825;BME280;68176;45.554;10.220;2023-05-14T06:56:09;99651.69;;;17.28;58.76
78825;BME280;68176;45.554;10.220;2023-05-14T06:58:39;99656.63;;;17.31;58.65
78825;BME280;68176;45.554;10.220;2023-05-14T07:01:10;99638.53;;;17.20;58.61
78825;BME280;68176;45.554;10.220;2023-05-14T07:03:39;99668.16;;;17.38;58.63
78825;BME280;68176;45.554;10.220;2023-05-14T07:06:10;99659.56;;;17.36;58.58
78825;BME280;68176;45.554;10.220;2023-05-14T07:08:39;99667.16;;;17.39;58.66
78825;BME280;68176;45.554;10.220;2023-05-14T07:11:10;99654.75;;;17.39;59.30
78825;BME280;68176;45.554;10.220;2023-05-14T07:13:40;99662.03;;;17.37;59.62
78825;BME280;68176;45.554;10.220;2023-05-14T07:16:09;99669.47;;;17.42;59.58
78825;BME280;68176;45.554;10.220;2023-05-14T07:18:43;99660.31;;;17.30;60.47
78825;BME280;68176;45.554;10.220;2023-05-14T07:21:12;99665.25;;;17.33;60.47
78825;BME280;68176;45.554;10.220;2023-05-14T07:23:39;99656.63;;;17.31;60.14
78825;BME280;68176;45.554;10.220;2023-05-14T07:26:10;99648.41;;;17.26;59.87
78825;BME280;68176;45.554;10.220;2023-05-14T07:28:39;99655.28;;;17.35;59.85
78825;BME280;68176;45.554;10.220;2023-05-14T07:31:10;99654.63;;;17.33;59.85
78825;BME280;68176;45.554;10.220;2023-05-14T07:33:39;99616.13;;;17.22;59.88
78825;BME280;68176;45.554;10.220;2023-05-14T07:36:10;99625.38;;;17.26;59.66
78825;BME280;68176;45.554;10.220;2023-05-14T07:38:43;99637.72;;;17.34;59.66
78825;BME280;68176;45.554;10.220;2023-05-14T07:41:10;99635.53;;;17.37;59.62
78825;BME280;68176;45.554;10.220;2023-05-14T07:43:40;99647.41;;;17.41;59.30
78825;BME280;68176;45.554;10.220;2023-05-14T07:46:13;99616.03;;;17.30;59.42
78825;BME280;68176;45.554;10.220;2023-05-14T07:48:43;99631.06;;;17.38;59.41
78825;BME280;68176;45.554;10.220;2023-05-14T07:51:10;99614.69;;;17.34;59.18
78825;BME280;68176;45.554;10.220;2023-05-14T07:53:40;99649.44;;;17.54;59.18
78825;BME280;68176;45.554;10.220;2023-05-14T07:56:10;99634.44;;;17.46;59.28
78825;BME280;68176;45.554;10.220;2023-05-14T07:58:40;99630.78;;;17.47;59.19
78825;BME280;68176;45.554;10.220;2023-05-14T08:01:10;99629.97;;;17.47;59.11
78825;BME280;68176;45.554;10.220;2023-05-14T08:03:40;99617.72;;;17.46;58.93
78825;BME280;68176;45.554;10.220;2023-05-14T08:06:10;99631.25;;;17.51;59.12
78825;BME280;68176;45.554;10.220;2023-05-14T08:08:40;99624.63;;;17.55;59.00
78825;BME280;68176;45.554;10.220;2023-05-14T08:11:10;99626.72;;;17.59;59.02
78825;BME280;68176;45.554;10.220;2023-05-14T08:13:40;99631.84;;;17.61;59.05
78825;BME280;68176;45.554;10.220;2023-05-14T08:16:10;99600.44;;;17.50;58.88
78825;BME280;68176;45.554;10.220;2023-05-14T08:18:40;99618.75;;;17.59;58.79
78825;BME280;68176;45.554;10.220;2023-05-14T08:21:10;99591.94;;;17.54;58.81
78825;BME280;68176;45.554;10.220;2023-05-14T08:23:40;99612.91;;;17.64;58.88
78825;BME280;68176;45.554;10.220;2023-05-14T08:26:10;99611.09;;;17.65;58.82
78825;BME280;68176;45.554;10.220;2023-05-14T08:28:40;99592.44;;;17.58;58.45
78825;BME280;68176;45.554;10.220;2023-05-14T08:31:12;99586.31;;;17.57;58.51
78825;BME280;68176;45.554;10.220;2023-05-14T08:33:40;99593.16;;;17.67;58.62
78825;BME280;68176;45.554;10.220;2023-05-14T08:36:10;99577.16;;;17.60;58.48
78825;BME280;68176;45.554;10.220;2023-05-14T08:38:40;99591.97;;;17.69;58.32
78825;BME280;68176;45.554;10.220;2023-05-14T08:41:14;99592.50;;;17.79;58.30
78825;BME280;68176;45.554;10.220;2023-05-14T08:46:22;99564.59;;;17.69;58.44
78825;BME280;68176;45.554;10.220;2023-05-14T08:48:59;99552.91;;;17.63;58.32
78825;BME280;68176;45.554;10.220;2023-05-14T08:51:28;99540.41;;;17.57;58.47
78825;BME280;68176;45.554;10.220;2023-05-14T08:53:54;99565.91;;;17.73;58.54
78825;BME280;68176;45.554;10.220;2023-05-14T08:56:22;99535.19;;;17.64;58.15
78825;BME280;68176;45.554;10.220;2023-05-14T08:58:52;99543.47;;;17.75;58.15
78825;BME280;68176;45.554;10.220;2023-05-14T09:01:22;99571.81;;;17.89;58.02
78825;BME280;68176;45.554;10.220;2023-05-14T09:03:53;99545.88;;;17.70;57.96
78825;BME280;68176;45.554;10.220;2023-05-14T09:06:23;99553.09;;;17.76;58.13
78825;BME280;68176;45.554;10.220;2023-05-14T09:08:52;99552.09;;;17.77;58.00
78825;BME280;68176;45.554;10.220;2023-05-14T09:11:22;99564.78;;;17.82;58.21
78825;BME280;68176;45.554;10.220;2023-05-14T09:13:52;99541.47;;;17.77;58.12
78825;BME280;68176;45.554;10.220;2023-05-14T09:16:24;99532.63;;;17.70;58.05
78825;BME280;68176;45.554;10.220;2023-05-14T09:18:52;99550.81;;;17.73;57.93
78825;BME280;68176;45.554;10.220;2023-05-14T09:28:35;99528.97;;;17.71;57.98
78825;BME280;68176;45.554;10.220;2023-05-14T09:31:15;99530.22;;;17.75;57.99
78825;BME280;68176;45.554;10.220;2023-05-14T09:34:37;99531.41;;;17.73;57.89
78825;BME280;68176;45.554;10.220;2023-05-14T10:00:09;99515.03;;;17.84;58.22
78825;BME280;68176;45.554;10.220;2023-05-14T10:03:13;99527.34;;;17.91;58.25
78825;BME280;68176;45.554;10.220;2023-05-14T10:06:44;99510.81;;;17.75;58.15
78825;BME280;68176;45.554;10.220;2023-05-14T10:09:34;99483.88;;;17.71;58.10
78825;BME280;68176;45.554;10.220;2023-05-14T10:12:15;99519.16;;;17.86;58.10
78825;BME280;68176;45.554;10.220;2023-05-14T10:25:21;99489.75;;;17.88;58.12
78825;BME280;68176;45.554;10.220;2023-05-14T10:27:50;99488.69;;;17.82;58.18
78825;BME280;68176;45.554;10.220;2023-05-14T10:33:22;99481.34;;;17.84;58.16
78825;BME280;68176;45.554;10.220;2023-05-14T10:50:46;99449.13;;;17.66;58.52
78825;BME280;68176;45.554;10.220;2023-05-14T11:06:42;99433.91;;;17.75;58.34
78825;BME280;68176;45.554;10.220;2023-05-14T11:12:55;99421.66;;;17.74;58.48
78825;BME280;68176;45.554;10.220;2023-05-14T11:25:46;99445.84;;;17.85;58.40
78825;BME280;68176;45.554;10.220;2023-05-14T11:28:38;99417.38;;;17.73;58.55
78825;BME280;68176;45.554;10.220;2023-05-14T11:31:04;99424.13;;;17.75;58.46
78825;BME280;68176;45.554;10.220;2023-05-14T11:37:11;99454.44;;;17.87;58.59
78825;BME280;68176;45.554;10.220;2023-05-14T11:43:09;99427.53;;;17.69;58.46
78825;BME280;68176;45.554;10.220;2023-05-14T11:45:35;99400.47;;;17.59;58.54
78825;BME280;68176;45.554;10.220;2023-05-14T11:48:10;99427.81;;;17.74;58.63
78825;BME280;68176;45.554;10.220;2023-05-14T11:50:53;99425.25;;;17.66;58.75
78825;BME280;68176;45.554;10.220;2023-05-14T11:53:29;99425.44;;;17.65;58.85
78825;BME280;68176;45.554;10.220;2023-05-14T11:59:09;99442.06;;;17.73;59.17
78825;BME280;68176;45.554;10.220;2023-05-14T12:01:38;99406.59;;;17.59;59.29
78825;BME280;68176;45.554;10.220;2023-05-14T12:04:18;99412.13;;;17.58;59.33
78825;BME280;68176;45.554;10.220;2023-05-14T12:07:14;99407.25;;;17.47;59.26
78825;BME280;68176;45.554;10.220;2023-05-14T12:09:43;99407.09;;;17.48;59.38
78825;BME280;68176;45.554;10.220;2023-05-14T12:12:21;99410.28;;;17.44;59.42
78825;BME280;68176;45.554;10.220;2023-05-14T12:14:50;99409.28;;;17.45;59.30
78825;BME280;68176;45.554;10.220;2023-05-14T12:17:26;99417.41;;;17.43;59.45
78825;BME280;68176;45.554;10.220;2023-05-14T12:19:58;99416.25;;;17.46;59.41
78825;BME280;68176;45.554;10.220;2023-05-14T12:22:28;99442.53;;;17.62;59.44
78825;BME280;68176;45.554;10.220;2023-05-14T12:24:55;99434.94;;;17.59;59.56
78825;BME280;68176;45.554;10.220;2023-05-14T12:27:22;99442.53;;;17.62;59.46
78825;BME280;68176;45.554;10.220;2023-05-14T12:30:02;99429.38;;;17.54;59.39
78825;BME280;68176;45.554;10.220;2023-05-14T12:32:30;99411.28;;;17.43;59.70
78825;BME280;68176;45.554;10.220;2023-05-14T12:34:55;99398.59;;;17.38;59.72
78825;BME280;68176;45.554;10.220;2023-05-14T12:37:24;99432.69;;;17.56;59.72
78825;BME280;68176;45.554;10.220;2023-05-14T12:39:53;99399.78;;;17.36;59.79
78825;BME280;68176;45.554;10.220;2023-05-14T12:42:30;99433.75;;;17.47;59.71
78825;BME280;68176;45.554;10.220;2023-05-14T12:45:03;99406.09;;;17.35;59.86
78825;BME280;68176;45.554;10.220;2023-05-14T12:47:38;99396.88;;;17.31;59.70
78825;BME280;68176;45.554;10.220;2023-05-14T12:50:31;99421.00;;;17.36;59.62
78825;BME280;68176;45.554;10.220;2023-05-14T12:53:06;99430.03;;;17.41;59.75
78825;BME280;68176;45.554;10.220;2023-05-14T12:55:53;99419.44;;;17.41;60.07
78825;BME280;68176;45.554;10.220;2023-05-14T12:58:31;99417.16;;;17.38;59.78
78825;BME280;68176;45.554;10.220;2023-05-14T13:01:22;99409.75;;;17.34;59.90
78825;BME280;68176;45.554;10.220;2023-05-14T13:03:53;99418.22;;;17.44;59.78
78825;BME280;68176;45.554;10.220;2023-05-14T13:06:56;99437.50;;;17.52;60.01
78825;BME280;68176;45.554;10.220;2023-05-14T13:09:32;99436.69;;;17.52;59.99
78825;BME280;68176;45.554;10.220;2023-05-14T13:15:40;99413.13;;;17.28;60.20
78825;BME280;68176;45.554;10.220;2023-05-14T13:18:24;99428.22;;;17.42;59.99
78825;BME280;68176;45.554;10.220;2023-05-14T13:21:15;99387.00;;;17.25;60.01
78825;BME280;68176;45.554;10.220;2023-05-14T13:24:06;99414.03;;;17.35;60.25
78825;BME280;68176;45.554;10.220;2023-05-14T13:29:34;99413.22;;;17.34;60.12
78825;BME280;68176;45.554;10.220;2023-05-14T13:32:00;99407.91;;;17.34;60.40
78825;BME280;68176;45.554;10.220;2023-05-14T13:34:31;99405.09;;;17.36;59.95
78825;BME280;68176;45.554;10.220;2023-05-14T13:37:01;99431.78;;;17.49;60.09
78825;BME280;68176;45.554;10.220;2023-05-14T13:39:28;99405.09;;;17.36;60.04
78825;BME280;68176;45.554;10.220;2023-05-14T13:42:02;99408.00;;;17.41;59.94
78825;BME280;68176;45.554;10.220;2023-05-14T13:44:37;99408.00;;;17.41;60.11
78825;BME280;68176;45.554;10.220;2023-05-14T13:47:26;99405.56;;;17.39;60.17
78825;BME280;68176;45.554;10.220;2023-05-14T13:49:55;99390.75;;;17.30;60.13
78825;BME280;68176;45.554;10.220;2023-05-14T13:52:34;99398.41;;;17.40;60.10
78825;BME280;68176;45.554;10.220;2023-05-14T13:55:10;99392.84;;;17.35;60.04
78825;BME280;68176;45.554;10.220;2023-05-14T13:58:03;99395.50;;;17.35;59.85
78825;BME280;68176;45.554;10.220;2023-05-14T14:00:29;99387.53;;;17.35;60.22
78825;BME280;68176;45.554;10.220;2023-05-14T14:02:55;99391.19;;;17.34;60.07
78825;BME280;68176;45.554;10.220;2023-05-14T14:05:23;99406.63;;;17.45;60.07
78825;BME280;68176;45.554;10.220;2023-05-14T14:07:54;99417.47;;;17.50;60.24
78825;BME280;68176;45.554;10.220;2023-05-14T14:10:23;99392.91;;;17.41;60.09
78825;BME280;68176;45.554;10.220;2023-05-14T14:13:08;99375.94;;;17.36;60.02
78825;BME280;68176;45.554;10.220;2023-05-14T14:15:45;99386.72;;;17.34;60.22
78825;BME280;68176;45.554;10.220;2023-05-14T14:20:59;99407.25;;;17.47;60.14
78825;BME280;68176;45.554;10.220;2023-05-14T14:23:27;99385.09;;;17.33;59.99
78825;BME280;68176;45.554;10.220;2023-05-14T14:25:56;99380.50;;;17.27;60.24
78825;BME280;68176;45.554;10.220;2023-05-14T14:28:22;99374.41;;;17.27;60.05
78825;BME280;68176;45.554;10.220;2023-05-14T14:31:06;99381.50;;;17.41;60.13
78825;BME280;68176;45.554;10.220;2023-05-14T14:34:05;99367.72;;;17.31;60.14
78825;BME280;68176;45.554;10.220;2023-05-14T14:36:40;99403.22;;;17.51;59.92
78825;BME280;68176;45.554;10.220;2023-05-14T14:39:23;99382.78;;;17.45;59.85
78825;BME280;68176;45.554;10.220;2023-05-14T14:41:50;99360.78;;;17.30;59.96
78825;BME280;68176;45.554;10.220;2023-05-14T14:44:26;99388.06;;;17.45;59.90
78825;BME280;68176;45.554;10.220;2023-05-14T14:50:19;99379.22;;;17.38;59.86
78825;BME280;68176;45.554;10.220;2023-05-14T14:52:48;99398.75;;;17.51;60.03
78825;BME280;68176;45.554;10.220;2023-05-14T14:55:13;99386.63;;;17.28;63.33
78825;BME280;68176;45.554;10.220;2023-05-14T14:57:41;99389.59;;;17.03;64.10
78825;BME280;68176;45.554;10.220;2023-05-14T15:00:12;99411.53;;;16.97;64.73
78825;BME280;68176;45.554;10.220;2023-05-14T15:02:42;99387.59;;;16.91;64.16
78825;BME280;68176;45.554;10.220;2023-05-14T15:05:11;99400.75;;;16.84;64.92
78825;BME280;68176;45.554;10.220;2023-05-14T15:07:42;99386.41;;;16.64;65.44